METAR AND TAF INFORMATION
METAR FOR EDDE
ADDS - METARS form results

(2300 UTC 28 January 2023)
Data provider http://aviationweather.gov/metar/data/
 
METAR text: EDDE 282250Z AUTO 24003KT 9999 BKN019 M04/M06 Q1028
Conditions at: EDDE (ERFURT/BINDERSLE, DE) observed 2250 UTC 28 January 2023
Temperature: -4.0°C (25°F)
Dewpoint: -6.0°C (21°F) [RH = 86%]
Pressure (altimeter): 30.35 inches Hg (1028.0 mb)
Winds: from the WSW (240 degrees) at 3 MPH (3 knots; 1.5 m/s)
Visibility: 6 or more miles (10+ km)
Ceiling: 1900 feet AGL
Clouds: broken clouds at 1900 feet AGL
Weather: no significant weather observed at this time

METAR text: EDDE 282220Z AUTO 23003KT 9999 BKN019 M04/M06 Q1028
Conditions at: EDDE (ERFURT/BINDERSLE, DE) observed 2220 UTC 28 January 2023
Temperature: -4.0°C (25°F)
Dewpoint: -6.0°C (21°F) [RH = 86%]
Pressure (altimeter): 30.35 inches Hg (1028.0 mb)
Winds: from the SW (230 degrees) at 3 MPH (3 knots; 1.5 m/s)
Visibility: 6 or more miles (10+ km)
Ceiling: 1900 feet AGL
Clouds: broken clouds at 1900 feet AGL
Weather: no significant weather observed at this time

Forecast for: EDDE (ERFURT/BINDERSLE, DE)
Text: TAF EDDE 281700Z 2818/2918 VRB03KT 9999 BKN020
Forecast period: 1800 UTC 28 January 2023 to 0000 UTC 29 January 2023
Forecast type: FROM: standard forecast or significant change
Winds: variable direction winds at 3 MPH (3 knots; 1.5 m/s)
Visibility: 6 or more miles (10+ km)
Ceiling: 2000 feet AGL
Clouds: broken clouds at 2000 feet AGL
Weather: no significant weather forecast for this period
Text: BECMG 2900/2903 24005KT
Forecast period: 0000 to 1800 UTC 29 January 2023
Forecast type: BECOMING: Conditions expected to become as follows by 0300 UTC 29 January 2023
Winds: from the WSW (240 degrees) at 6 MPH (5 knots; 2.6 m/s)
Visibility: 6 or more miles (10+ km)
Ceiling: 2000 feet AGL
Clouds: broken clouds at 2000 feet AGL
Weather: no significant weather forecast for this period

 AIRPORT MAP

 RUNWAY INFORMATION
Runway 10 Runway length 8530 ft Runway width 164 ft
Runway elevation 1025 ft Runway displaced threshold 0 ft Runway heading 98
Runway 28 Runway length 8530 ft Runway width 164 ft
Runway elevation 1016 ft Runway displaced threshold 689 ft Runway heading 278

 AIRPORT FREQUENCIES
Type APP Name MUNCHEN RA Frequency 132.3 MHZ
Type ATIS Name ATIS Frequency 133.45 MHZ
Type GND Name GND Frequency 121.75 MHZ
Type INFO Name MUNCHEN IN Frequency 120.65 MHZ
Type RMP Name APRON Frequency 121.9 MHZ
Type TWR Name TWR Frequency 121.15 MHZ

 AIRPORT NEAR NAVIGATION AIDS
Type DME Name Erfurt Frequency 112050 KHZ
Type VOR-DME Name Erfurt Frequency 113850 KHZ
Type NDB Name Erfurt Frequency 425 KHZ